Time;durP1;ratioP1;P1;durP2;ratioP2;P2;SDS_P1;SDS_P2;PMS_P1;PMS_P2;Temp;Humidity;BMP_temperature;BMP_pressure;BME280_temperature;BME280_humidity;BME280_pressure;Samples;Min_cycle;Max_cycle;Signal;HPM_P1;HPM_P2
2022/08/03 00:01:39;;;;;;;5.57;2.80;;;;;;;;;;5055097;28;20412;-82
2022/08/03 00:04:05;;;;;;;6.20;2.50;;;;;;;;;;5052229;28;20439;-80
2022/08/03 00:06:31;;;;;;;5.70;2.90;;;;;;;;;;5033996;28;20509;-78
2022/08/03 00:08:57;;;;;;;3.30;2.63;;;;;;;;;;5034740;28;20413;-80
2022/08/03 00:11:23;;;;;;;2.90;2.60;;;;;;;;;;5053394;28;20897;-80
2022/08/03 00:13:49;;;;;;;4.63;2.90;;;;;;;;;;5054589;28;20427;-84
2022/08/03 00:16:16;;;;;;;5.30;2.70;;;;;;;;;;5054888;28;20490;-79
2022/08/03 00:18:42;;;;;;;5.00;2.77;;;;;;;;;;5054741;28;20602;-82
2022/08/03 00:21:08;;;;;;;8.57;3.07;;;;;;;;;;5053252;28;20788;-80
2022/08/03 00:23:34;;;;;;;3.20;2.90;;;;;;;;;;5054139;28;20454;-79
2022/08/03 00:26:00;;;;;;;3.43;2.73;;;;;;;;;;5053415;28;20407;-83
2022/08/03 00:28:26;;;;;;;5.20;2.83;;;;;;;;;;5054854;28;20424;-81
2022/08/03 00:30:54;;;;;;;4.97;3.50;;;;;;;;;;5037984;28;20914;-82
2022/08/03 00:33:20;;;;;;;3.40;3.03;;;;;;;;;;5039695;28;20448;-81
2022/08/03 00:35:46;;;;;;;3.40;3.10;;;;;;;;;;5052528;28;20419;-80
2022/08/03 00:38:12;;;;;;;4.57;2.90;;;;;;;;;;5054477;28;20495;-79
2022/08/03 00:40:38;;;;;;;3.73;3.33;;;;;;;;;;5053239;28;20477;-82
2022/08/03 00:43:05;;;;;;;7.00;3.00;;;;;;;;;;5054083;28;20522;-78
2022/08/03 00:45:36;;;;;;;4.10;3.00;;;;;;;;;;5045210;28;20399;-81
2022/08/03 00:48:03;;;;;;;4.60;2.97;;;;;;;;;;5034394;28;20419;-81
2022/08/03 00:50:31;;;;;;;4.10;2.93;;;;;;;;;;5034353;28;20412;-82
2022/08/03 00:52:58;;;;;;;4.10;3.07;;;;;;;;;;5033538;28;20424;-81
2022/08/03 00:55:25;;;;;;;2.60;2.40;;;;;;;;;;5038158;28;20428;-80
2022/08/03 00:57:51;;;;;;;3.27;2.80;;;;;;;;;;5041975;28;21084;-80
2022/08/03 01:00:21;;;;;;;4.87;2.93;;;;;;;;;;5053750;28;20467;-82
2022/08/03 01:02:47;;;;;;;6.93;3.00;;;;;;;;;;5033879;28;20802;-81
2022/08/03 01:05:13;;;;;;;3.80;2.90;;;;;;;;;;5034598;28;20512;-79
2022/08/03 01:07:51;;;;;;;4.37;3.33;;;;;;;;;;5032730;28;20426;-82
2022/08/03 01:10:37;;;;;;;3.90;3.00;;;;;;;;;;5033869;28;20448;-81
2022/08/03 01:13:06;;;;;;;3.07;2.77;;;;;;;;;;5033696;28;20536;-81
2022/08/03 01:15:38;;;;;;;3.70;3.13;;;;;;;;;;5034075;28;20720;-82
2022/08/03 01:18:19;;;;;;;3.27;2.97;;;;;;;;;;5035278;28;20412;-82
2022/08/03 01:20:47;;;;;;;3.37;3.07;;;;;;;;;;5045748;28;20899;-79
2022/08/03 01:23:21;;;;;;;4.13;2.60;;;;;;;;;;5033264;28;20428;-79
2022/08/03 01:26:05;;;;;;;4.43;2.90;;;;;;;;;;5033908;28;20400;-82
2022/08/03 01:28:57;;;;;;;3.23;3.03;;;;;;;;;;5037298;28;20489;-80
2022/08/03 01:31:25;;;;;;;3.37;3.10;;;;;;;;;;5052353;28;20382;-83
2022/08/03 01:33:55;;;;;;;3.47;3.17;;;;;;;;;;5053164;28;20584;-82
2022/08/03 01:36:26;;;;;;;4.13;3.03;;;;;;;;;;5052364;28;20420;-79
2022/08/03 01:38:54;;;;;;;3.63;2.90;;;;;;;;;;5044821;28;20471;-80
2022/08/03 01:41:22;;;;;;;4.13;2.90;;;;;;;;;;5054251;28;20403;-82
2022/08/03 01:43:49;;;;;;;5.00;4.03;;;;;;;;;;5053524;28;20409;-79
2022/08/03 01:46:16;;;;;;;3.53;3.23;;;;;;;;;;5052885;28;20464;-78
2022/08/03 01:48:43;;;;;;;3.03;2.80;;;;;;;;;;5043118;28;20952;-81
2022/08/03 01:51:10;;;;;;;3.37;3.07;;;;;;;;;;5033372;28;20424;-82
2022/08/03 01:53:37;;;;;;;3.13;2.83;;;;;;;;;;5040309;28;20555;-79
2022/08/03 01:56:05;;;;;;;4.40;4.00;;;;;;;;;;5039284;28;20392;-80
2022/08/03 01:58:31;;;;;;;3.70;2.87;;;;;;;;;;5031626;28;20464;-79
2022/08/03 02:00:59;;;;;;;5.33;2.80;;;;;;;;;;5033093;28;20455;-79
2022/08/03 02:03:26;;;;;;;3.30;3.00;;;;;;;;;;5031510;28;20441;-83
2022/08/03 02:05:53;;;;;;;3.87;3.27;;;;;;;;;;5033115;28;20782;-81
2022/08/03 02:08:19;;;;;;;3.20;2.90;;;;;;;;;;5046207;28;20422;-82
2022/08/03 02:10:46;;;;;;;4.70;3.43;;;;;;;;;;5052921;28;20730;-78
2022/08/03 02:13:12;;;;;;;8.27;3.57;;;;;;;;;;5049310;28;20423;-81
2022/08/03 02:15:38;;;;;;;4.17;3.77;;;;;;;;;;5031769;28;20421;-79
2022/08/03 02:18:05;;;;;;;3.20;3.00;;;;;;;;;;5032868;28;20481;-78
2022/08/03 02:20:35;;;;;;;4.50;3.57;;;;;;;;;;5032912;28;20498;-79
2022/08/03 02:23:01;;;;;;;3.90;2.93;;;;;;;;;;5032941;28;20439;-81
2022/08/03 02:25:28;;;;;;;5.73;3.40;;;;;;;;;;5032974;28;20458;-82
2022/08/03 02:28:08;;;;;;;3.83;3.53;;;;;;;;;;5033014;28;20475;-81
2022/08/03 02:30:37;;;;;;;3.73;3.00;;;;;;;;;;5031686;28;20452;-80
2022/08/03 02:33:04;;;;;;;4.97;3.50;;;;;;;;;;5032753;28;20422;-77
2022/08/03 02:35:30;;;;;;;6.77;4.00;;;;;;;;;;5047939;28;20831;-81
2022/08/03 02:37:59;;;;;;;5.47;3.67;;;;;;;;;;5052691;28;20387;-81
2022/08/03 02:40:27;;;;;;;5.33;3.97;;;;;;;;;;5035244;28;20462;-84
2022/08/03 02:42:55;;;;;;;3.10;2.67;;;;;;;;;;5032411;28;20479;-79
2022/08/03 02:45:23;;;;;;;3.80;3.37;;;;;;;;;;5032788;28;20425;-83
2022/08/03 02:47:52;;;;;;;3.53;3.23;;;;;;;;;;5035132;28;20396;-81
2022/08/03 02:50:18;;;;;;;3.20;2.90;;;;;;;;;;5052555;28;20390;-82
2022/08/03 02:52:45;;;;;;;3.47;2.90;;;;;;;;;;5047671;28;20476;-81
2022/08/03 02:55:11;;;;;;;3.50;3.20;;;;;;;;;;5042249;28;20769;-78
2022/08/03 02:57:38;;;;;;;4.07;3.63;;;;;;;;;;5032702;28;20418;-78
2022/08/03 03:00:05;;;;;;;3.57;3.27;;;;;;;;;;5032590;28;20811;-78
2022/08/03 03:02:31;;;;;;;4.20;3.80;;;;;;;;;;5032465;28;20428;-77
2022/08/03 03:04:57;;;;;;;3.53;3.23;;;;;;;;;;5031532;28;20481;-79
2022/08/03 03:07:24;;;;;;;4.60;3.77;;;;;;;;;;5035794;28;20643;-80
2022/08/03 03:09:50;;;;;;;4.23;3.40;;;;;;;;;;5056029;28;20440;-78
2022/08/03 03:12:17;;;;;;;3.80;3.27;;;;;;;;;;5054549;28;20420;-80
2022/08/03 03:14:42;;;;;;;3.80;3.40;;;;;;;;;;5055875;28;20917;-81
2022/08/03 03:17:09;;;;;;;4.17;3.10;;;;;;;;;;5055986;28;20461;-82
2022/08/03 03:19:36;;;;;;;5.33;4.00;;;;;;;;;;5054826;28;20481;-82
2022/08/03 03:22:05;;;;;;;3.53;3.10;;;;;;;;;;5055638;28;20454;-77
2022/08/03 03:24:31;;;;;;;4.40;3.23;;;;;;;;;;5055579;28;20496;-85
2022/08/03 03:26:57;;;;;;;4.70;3.70;;;;;;;;;;5054616;28;20732;-80
2022/08/03 03:29:23;;;;;;;4.17;3.43;;;;;;;;;;5040619;28;20429;-80
2022/08/03 03:31:49;;;;;;;3.47;3.17;;;;;;;;;;5054569;28;20420;-81
2022/08/03 03:34:16;;;;;;;4.53;3.77;;;;;;;;;;5053921;28;20473;-80
2022/08/03 03:36:42;;;;;;;3.57;3.27;;;;;;;;;;5048319;28;20407;-81
2022/08/03 03:39:09;;;;;;;4.90;3.30;;;;;;;;;;5034597;28;20467;-80
2022/08/03 03:41:35;;;;;;;4.07;3.67;;;;;;;;;;5037130;28;20423;-79
2022/08/03 03:44:01;;;;;;;6.60;3.53;;;;;;;;;;5035314;28;20471;-81
2022/08/03 03:46:28;;;;;;;3.30;3.00;;;;;;;;;;5037915;28;20416;-78
2022/08/03 03:48:54;;;;;;;5.23;3.77;;;;;;;;;;5055504;28;20395;-80
2022/08/03 03:51:20;;;;;;;3.90;3.50;;;;;;;;;;5049817;28;20518;-80
2022/08/03 03:53:59;;;;;;;4.10;3.47;;;;;;;;;;5033858;28;20496;-82
2022/08/03 03:56:25;;;;;;;3.57;3.27;;;;;;;;;;5035511;28;20456;-81
2022/08/03 03:58:51;;;;;;;3.90;3.50;;;;;;;;;;5046468;28;20575;-84
2022/08/03 04:01:18;;;;;;;3.43;3.13;;;;;;;;;;5037491;28;20399;-77
2022/08/03 04:03:44;;;;;;;5.00;3.20;;;;;;;;;;5055017;28;20415;-79
2022/08/03 04:11:41;;;;;;;4.67;3.23;;;;;;;;;;5053728;28;20787;-78
2022/08/03 04:14:15;;;;;;;4.40;3.10;;;;;;;;;;5044296;28;20420;-80
2022/08/03 04:16:44;;;;;;;3.87;3.20;;;;;;;;;;5035084;28;20394;-81
2022/08/03 04:19:13;;;;;;;5.13;3.63;;;;;;;;;;5034103;28;20857;-80
2022/08/03 04:21:43;;;;;;;4.30;3.90;;;;;;;;;;5045393;28;20686;-78
2022/08/03 04:24:11;;;;;;;4.17;3.77;;;;;;;;;;5046930;28;20433;-80
2022/08/03 04:26:39;;;;;;;3.80;3.50;;;;;;;;;;5049058;28;20906;-79
2022/08/03 04:29:06;;;;;;;7.47;4.00;;;;;;;;;;5054027;28;20517;-77
2022/08/03 04:31:32;;;;;;;4.50;3.33;;;;;;;;;;5035021;28;20491;-81
2022/08/03 04:33:59;;;;;;;5.43;3.60;;;;;;;;;;5034677;28;20420;-83
2022/08/03 04:36:26;;;;;;;3.80;3.20;;;;;;;;;;5034622;28;20444;-81
2022/08/03 04:38:57;;;;;;;5.67;3.97;;;;;;;;;;5040390;28;20801;-81
2022/08/03 04:41:25;;;;;;;4.53;3.27;;;;;;;;;;5056456;28;20405;-79
2022/08/03 04:43:53;;;;;;;4.17;3.33;;;;;;;;;;5054564;28;20445;-78
2022/08/03 04:46:22;;;;;;;3.83;3.53;;;;;;;;;;5043268;28;20395;-84
2022/08/03 04:48:48;;;;;;;5.70;3.90;;;;;;;;;;5054395;28;20766;-82
2022/08/03 04:51:14;;;;;;;4.13;3.70;;;;;;;;;;5054554;28;20449;-81
2022/08/03 04:53:40;;;;;;;4.67;4.10;;;;;;;;;;5052739;28;20465;-78
2022/08/03 04:56:07;;;;;;;4.23;3.90;;;;;;;;;;5053197;28;20430;-82
2022/08/03 04:58:33;;;;;;;6.87;4.00;;;;;;;;;;5053384;28;20760;-82
2022/08/03 05:00:59;;;;;;;5.00;3.77;;;;;;;;;;5054381;28;20444;-80
2022/08/03 05:03:25;;;;;;;4.30;3.77;;;;;;;;;;5053885;28;20400;-82
2022/08/03 05:05:51;;;;;;;3.90;3.37;;;;;;;;;;5053599;28;20392;-80
2022/08/03 05:08:18;;;;;;;3.80;3.40;;;;;;;;;;5054566;28;20753;-79
2022/08/03 05:10:44;;;;;;;4.23;3.50;;;;;;;;;;5051124;28;20473;-84
2022/08/03 05:13:12;;;;;;;6.73;3.70;;;;;;;;;;5052529;28;20950;-81
2022/08/03 05:15:38;;;;;;;4.07;3.67;;;;;;;;;;5052619;28;20399;-78
2022/08/03 05:18:04;;;;;;;4.20;3.70;;;;;;;;;;5049474;28;20396;-79
2022/08/03 05:20:30;;;;;;;4.23;3.37;;;;;;;;;;5042913;28;20445;-83
2022/08/03 05:22:56;;;;;;;5.93;3.60;;;;;;;;;;5053574;28;20414;-82
2022/08/03 05:25:22;;;;;;;4.73;4.03;;;;;;;;;;5053734;28;20418;-80
2022/08/03 05:27:48;;;;;;;4.63;3.50;;;;;;;;;;5053981;28;20383;-77
2022/08/03 05:30:15;;;;;;;4.27;3.87;;;;;;;;;;5033948;28;20455;-81
2022/08/03 05:32:41;;;;;;;3.70;3.20;;;;;;;;;;5033603;28;20418;-78
2022/08/03 05:35:07;;;;;;;4.17;3.80;;;;;;;;;;5032396;28;20396;-78
2022/08/03 05:37:33;;;;;;;4.10;3.40;;;;;;;;;;5033416;28;20429;-82
2022/08/03 05:39:59;;;;;;;3.60;3.30;;;;;;;;;;5033615;28;20470;-81
2022/08/03 05:42:25;;;;;;;8.00;4.20;;;;;;;;;;5033402;28;20435;-80
2022/08/03 05:44:51;;;;;;;4.77;3.50;;;;;;;;;;5033650;28;20951;-83
2022/08/03 05:47:17;;;;;;;4.53;3.87;;;;;;;;;;5044792;28;20411;-81
2022/08/03 05:49:43;;;;;;;6.90;4.50;;;;;;;;;;5053224;28;20751;-81
2022/08/03 05:52:09;;;;;;;5.63;3.90;;;;;;;;;;5051842;28;20400;-81
2022/08/03 05:54:35;;;;;;;4.10;3.27;;;;;;;;;;5052902;28;20796;-82
2022/08/03 05:57:01;;;;;;;3.73;3.40;;;;;;;;;;5041502;28;20439;-85
2022/08/03 05:59:27;;;;;;;5.23;3.80;;;;;;;;;;5033107;28;21016;-80
2022/08/03 06:01:53;;;;;;;5.37;3.30;;;;;;;;;;5033170;28;20391;-80
2022/08/03 06:04:19;;;;;;;5.40;3.13;;;;;;;;;;5033002;28;20485;-80
2022/08/03 06:06:46;;;;;;;5.47;3.00;;;;;;;;;;5040817;28;20476;-82
2022/08/03 06:09:12;;;;;;;3.30;2.93;;;;;;;;;;5052100;28;20425;-77
2022/08/03 06:11:39;;;;;;;4.50;3.00;;;;;;;;;;5052983;28;20412;-79
2022/08/03 06:14:05;;;;;;;4.93;3.93;;;;;;;;;;5052577;28;20446;-79
2022/08/03 06:16:32;;;;;;;8.93;3.13;;;;;;;;;;5053104;28;20902;-78
2022/08/03 06:18:58;;;;;;;12.10;3.77;;;;;;;;;;5051767;28;20605;-78
2022/08/03 06:21:24;;;;;;;10.30;3.00;;;;;;;;;;5053591;28;20473;-80
2022/08/03 06:23:50;;;;;;;3.80;2.77;;;;;;;;;;5052826;28;20492;-83
2022/08/03 06:26:16;;;;;;;3.93;2.80;;;;;;;;;;5046073;28;20420;-80
2022/08/03 06:28:44;;;;;;;3.93;3.10;;;;;;;;;;5033149;28;20380;-82
2022/08/03 06:31:10;;;;;;;3.80;3.27;;;;;;;;;;5033438;28;20416;-81
2022/08/03 06:33:36;;;;;;;4.70;3.30;;;;;;;;;;5032426;28;20435;-79
2022/08/03 06:36:03;;;;;;;4.60;2.33;;;;;;;;;;5031954;28;20418;-79
2022/08/03 06:38:29;;;;;;;4.60;3.30;;;;;;;;;;5032919;28;20464;-79
2022/08/03 06:40:55;;;;;;;3.70;2.97;;;;;;;;;;5033536;28;20958;-82
2022/08/03 06:43:21;;;;;;;5.53;3.23;;;;;;;;;;5035039;28;20443;-78
2022/08/03 06:45:46;;;;;;;4.77;2.83;;;;;;;;;;5047045;28;20514;-82
2022/08/03 06:48:12;;;;;;;5.17;2.83;;;;;;;;;;5056715;28;20413;-78
2022/08/03 06:50:40;;;;;;;7.80;3.73;;;;;;;;;;5056374;28;20409;-83
2022/08/03 06:53:06;;;;;;;5.57;3.10;;;;;;;;;;5056040;28;20448;-82
2022/08/03 06:55:32;;;;;;;4.40;3.17;;;;;;;;;;5049684;28;20438;-79
2022/08/03 06:57:58;;;;;;;8.43;2.80;;;;;;;;;;5018830;28;20517;-79
2022/08/03 07:00:25;;;;;;;5.40;2.70;;;;;;;;;;5036369;28;20943;-79
2022/08/03 07:02:51;;;;;;;3.37;2.70;;;;;;;;;;5036213;28;20880;-82
2022/08/03 07:05:17;;;;;;;4.13;2.57;;;;;;;;;;5036299;28;20425;-80
2022/08/03 07:07:43;;;;;;;5.80;2.70;;;;;;;;;;5036519;28;20376;-78
2022/08/03 07:10:10;;;;;;;4.83;2.63;;;;;;;;;;5018680;28;20425;-79
2022/08/03 07:12:37;;;;;;;3.37;2.20;;;;;;;;;;5036087;28;20424;-80
2022/08/03 07:15:04;;;;;;;4.60;2.60;;;;;;;;;;5036453;28;20506;-83
2022/08/03 07:17:30;;;;;;;2.70;1.90;;;;;;;;;;5036213;28;20420;-81
2022/08/03 07:19:57;;;;;;;4.47;2.43;;;;;;;;;;5036117;28;20515;-79
2022/08/03 07:22:23;;;;;;;5.03;2.53;;;;;;;;;;5035724;28;20424;-81
2022/08/03 07:24:49;;;;;;;3.50;2.40;;;;;;;;;;5054950;28;20478;-82
2022/08/03 07:27:15;;;;;;;4.80;1.80;;;;;;;;;;5055934;28;20416;-80
2022/08/03 07:29:41;;;;;;;4.70;2.40;;;;;;;;;;5055830;28;20462;-79
2022/08/03 07:32:07;;;;;;;6.37;2.70;;;;;;;;;;5055850;28;20409;-79
2022/08/03 07:34:33;;;;;;;4.07;2.43;;;;;;;;;;5039313;28;20453;-80
2022/08/03 07:36:59;;;;;;;3.07;2.20;;;;;;;;;;5052001;28;20428;-81
2022/08/03 07:39:25;;;;;;;2.60;2.40;;;;;;;;;;5054730;28;20469;-78
2022/08/03 07:41:51;;;;;;;3.97;2.37;;;;;;;;;;5056046;28;20413;-84
2022/08/03 07:44:18;;;;;;;3.30;2.07;;;;;;;;;;5055868;28;21039;-80
2022/08/03 07:46:44;;;;;;;3.73;2.07;;;;;;;;;;5052700;28;20445;-80
2022/08/03 07:49:10;;;;;;;3.73;1.80;;;;;;;;;;5055609;28;20926;-80
2022/08/03 07:51:37;;;;;;;5.90;2.50;;;;;;;;;;5055649;28;20909;-78
2022/08/03 07:54:03;;;;;;;8.43;2.83;;;;;;;;;;5053911;28;20453;-84
2022/08/03 07:56:29;;;;;;;3.07;2.50;;;;;;;;;;5041170;28;20509;-78
2022/08/03 07:58:55;;;;;;;2.90;1.73;;;;;;;;;;5035293;28;20472;-77
2022/08/03 08:01:21;;;;;;;3.30;2.17;;;;;;;;;;5035395;28;20405;-83
2022/08/03 08:03:48;;;;;;;9.10;2.70;;;;;;;;;;5035203;28;20457;-79
2022/08/03 08:06:14;;;;;;;1.70;1.43;;;;;;;;;;5045718;28;20848;-81
2022/08/03 08:08:40;;;;;;;2.97;1.80;;;;;;;;;;5055151;28;20440;-77
2022/08/03 08:11:06;;;;;;;4.70;1.83;;;;;;;;;;5055062;28;20448;-77
2022/08/03 08:13:32;;;;;;;4.00;1.90;;;;;;;;;;5054622;28;20516;-76
2022/08/03 08:15:58;;;;;;;5.03;2.33;;;;;;;;;;5046290;28;20778;-77
2022/08/03 08:18:25;;;;;;;6.00;1.90;;;;;;;;;;5040510;28;20894;-76
2022/08/03 08:20:51;;;;;;;4.67;2.20;;;;;;;;;;5035105;28;21098;-76
2022/08/03 08:23:23;;;;;;;3.57;1.97;;;;;;;;;;5034790;28;20473;-76
2022/08/03 08:25:50;;;;;;;3.87;2.20;;;;;;;;;;5035459;28;20428;-76
2022/08/03 08:28:19;;;;;;;2.87;1.90;;;;;;;;;;5043873;28;20525;-76
2022/08/03 08:30:45;;;;;;;4.33;2.00;;;;;;;;;;5054743;28;20424;-77
2022/08/03 08:33:11;;;;;;;5.00;1.87;;;;;;;;;;5054317;28;20433;-76
2022/08/03 08:35:37;;;;;;;4.70;2.20;;;;;;;;;;5054656;28;20417;-76
2022/08/03 08:38:03;;;;;;;4.17;1.70;;;;;;;;;;5052308;28;20990;-77
2022/08/03 08:40:29;;;;;;;3.73;1.70;;;;;;;;;;5053331;28;20558;-76
2022/08/03 08:42:55;;;;;;;4.40;2.30;;;;;;;;;;5054197;28;20780;-77
2022/08/03 08:45:22;;;;;;;2.13;1.90;;;;;;;;;;5052909;28;20794;-77
2022/08/03 08:47:48;;;;;;;3.40;1.57;;;;;;;;;;5058270;28;20444;-76
2022/08/03 08:50:18;;;;;;;7.33;2.33;;;;;;;;;;5054285;28;20424;-77
2022/08/03 08:52:47;;;;;;;4.27;2.20;;;;;;;;;;5033075;28;20448;-77
2022/08/03 08:55:15;;;;;;;3.30;1.90;;;;;;;;;;5051426;28;20439;-77
2022/08/03 08:57:47;;;;;;;3.93;1.73;;;;;;;;;;5054157;28;20436;-77
2022/08/03 09:00:14;;;;;;;5.53;2.23;;;;;;;;;;5054040;28;20460;-76
2022/08/03 09:02:43;;;;;;;6.70;2.10;;;;;;;;;;5053739;28;20446;-77
2022/08/03 09:05:12;;;;;;;4.03;2.00;;;;;;;;;;5049663;28;20428;-77
2022/08/03 09:15:58;;;;;;;3.00;1.63;;;;;;;;;;5071755;22;20493;-76
2022/08/03 09:18:32;;;;;;;3.80;2.00;;;;;;;;;;5051587;28;20420;-75
2022/08/03 09:21:12;;;;;;;2.80;1.57;;;;;;;;;;5050244;28;20949;-76
2022/08/03 09:23:48;;;;;;;4.43;1.40;;;;;;;;;;5052925;28;20496;-76
2022/08/03 09:26:22;;;;;;;4.10;2.07;;;;;;;;;;5052347;28;20951;-76
2022/08/03 09:28:54;;;;;;;3.97;1.70;;;;;;;;;;5053761;28;20396;-77
2022/08/03 09:31:20;;;;;;;6.43;1.60;;;;;;;;;;5053710;28;20400;-76
2022/08/03 09:33:47;;;;;;;5.20;2.17;;;;;;;;;;5053321;28;20432;-76
2022/08/03 09:36:33;;;;;;;6.03;2.10;;;;;;;;;;5053743;28;20811;-77
2022/08/03 09:39:05;;;;;;;4.80;1.63;;;;;;;;;;5053363;28;20419;-76
2022/08/03 09:41:34;;;;;;;7.67;2.07;;;;;;;;;;5053296;28;20423;-76
2022/08/03 09:44:00;;;;;;;3.70;1.53;;;;;;;;;;5053119;28;20435;-76
2022/08/03 09:46:30;;;;;;;5.87;2.10;;;;;;;;;;5053332;28;20412;-76
2022/08/03 09:49:08;;;;;;;3.83;1.63;;;;;;;;;;5050357;28;20505;-76
2022/08/03 09:51:34;;;;;;;6.47;2.13;;;;;;;;;;5053132;28;20408;-75
2022/08/03 09:54:02;;;;;;;5.13;1.63;;;;;;;;;;5052779;28;20920;-76
2022/08/03 09:56:42;;;;;;;3.63;1.80;;;;;;;;;;5053273;28;20412;-75
2022/08/03 09:59:08;;;;;;;8.10;1.70;;;;;;;;;;5052493;28;20416;-77
2022/08/03 10:01:41;;;;;;;3.63;1.97;;;;;;;;;;5052804;28;20519;-77
2022/08/03 10:04:15;;;;;;;2.23;1.60;;;;;;;;;;5052754;28;20447;-77
2022/08/03 10:06:42;;;;;;;3.97;1.70;;;;;;;;;;5051872;28;20415;-77
2022/08/03 10:09:10;;;;;;;4.30;2.10;;;;;;;;;;5044019;28;20456;-75
2022/08/03 10:11:37;;;;;;;3.60;1.67;;;;;;;;;;5032909;28;20413;-76
2022/08/03 10:14:04;;;;;;;5.53;1.90;;;;;;;;;;5031145;28;20448;-76
2022/08/03 10:16:36;;;;;;;2.03;1.47;;;;;;;;;;5039845;28;20429;-76
2022/08/03 10:19:04;;;;;;;5.17;1.70;;;;;;;;;;5036078;28;20878;-75
2022/08/03 10:21:38;;;;;;;2.40;1.50;;;;;;;;;;5034889;28;20939;-77
2022/08/03 10:24:05;;;;;;;3.07;1.60;;;;;;;;;;5035525;28;20429;-77
2022/08/03 10:26:35;;;;;;;5.23;1.60;;;;;;;;;;5043981;28;20452;-77
2022/08/03 10:29:10;;;;;;;8.03;1.57;;;;;;;;;;5040716;28;20878;-78
2022/08/03 10:31:39;;;;;;;5.97;1.90;;;;;;;;;;5041076;28;20418;-77
2022/08/03 10:34:14;;;;;;;2.27;1.30;;;;;;;;;;5039251;28;20849;-76
2022/08/03 10:36:41;;;;;;;3.97;1.50;;;;;;;;;;5045328;28;20629;-75
2022/08/03 10:39:27;;;;;;;6.80;1.80;;;;;;;;;;5045170;28;20430;-75
2022/08/03 10:41:59;;;;;;;8.33;1.80;;;;;;;;;;5050916;28;20507;-76
2022/08/03 10:44:29;;;;;;;3.27;1.40;;;;;;;;;;5041365;28;20441;-75
2022/08/03 10:46:56;;;;;;;4.20;1.90;;;;;;;;;;5041146;28;20443;-78
2022/08/03 10:49:22;;;;;;;4.90;1.50;;;;;;;;;;5042971;28;20885;-77
2022/08/03 10:51:51;;;;;;;2.03;1.40;;;;;;;;;;5039619;28;20508;-77
2022/08/03 10:54:36;;;;;;;4.43;1.90;;;;;;;;;;5039278;28;20452;-77
2022/08/03 10:59:49;;;;;;;7.83;1.37;;;;;;;;;;5046588;28;20478;-78
2022/08/03 11:02:16;;;;;;;3.73;1.60;;;;;;;;;;5043427;28;20497;-77
2022/08/03 11:04:46;;;;;;;4.80;1.90;;;;;;;;;;5039333;28;20447;-78
2022/08/03 11:07:27;;;;;;;6.90;2.10;;;;;;;;;;5041378;28;20434;-77
2022/08/03 11:09:54;;;;;;;3.67;1.70;;;;;;;;;;5036175;28;20449;-77
2022/08/03 11:12:28;;;;;;;4.67;1.33;;;;;;;;;;5046338;28;20428;-77
2022/08/03 11:14:57;;;;;;;2.70;1.60;;;;;;;;;;5043159;28;20548;-77
2022/08/03 11:17:32;;;;;;;4.20;1.63;;;;;;;;;;5043715;28;20422;-76
2022/08/03 11:19:58;;;;;;;3.00;1.40;;;;;;;;;;5044901;28;20424;-75
2022/08/03 11:22:24;;;;;;;5.87;1.73;;;;;;;;;;5045211;28;20427;-77
2022/08/03 11:24:55;;;;;;;3.03;1.40;;;;;;;;;;5045969;28;20949;-77
2022/08/03 11:27:21;;;;;;;3.27;1.50;;;;;;;;;;5046915;28;20438;-77
2022/08/03 11:29:55;;;;;;;7.10;1.70;;;;;;;;;;5042985;28;20455;-77
2022/08/03 11:32:50;;;;;;;5.20;1.70;;;;;;;;;;5050142;28;20427;-78
2022/08/03 11:35:16;;;;;;;3.93;1.73;;;;;;;;;;5010276;28;20425;-77
2022/08/03 11:37:54;;;;;;;3.90;1.90;;;;;;;;;;5042587;28;20781;-77
2022/08/03 11:40:32;;;;;;;4.37;2.00;;;;;;;;;;5042280;28;20454;-76
2022/08/03 11:42:58;;;;;;;4.87;1.50;;;;;;;;;;5041885;28;20422;-77
2022/08/03 11:45:24;;;;;;;2.30;1.30;;;;;;;;;;5044650;28;20527;-76
2022/08/03 11:47:53;;;;;;;5.03;1.80;;;;;;;;;;5048122;28;20507;-76
2022/08/03 11:50:20;;;;;;;3.00;1.37;;;;;;;;;;5048001;28;20459;-82
2022/08/03 11:52:46;;;;;;;3.97;1.83;;;;;;;;;;5050946;28;20462;-77
2022/08/03 11:55:13;;;;;;;6.10;1.63;;;;;;;;;;5046994;28;20896;-77
2022/08/03 11:57:39;;;;;;;3.20;1.40;;;;;;;;;;5042864;28;20920;-77
2022/08/03 12:00:21;;;;;;;4.67;1.60;;;;;;;;;;5044514;28;20461;-77
2022/08/03 12:02:54;;;;;;;5.30;1.70;;;;;;;;;;5042671;28;20938;-77
2022/08/03 12:05:21;;;;;;;4.80;1.80;;;;;;;;;;5043950;28;20424;-77
2022/08/03 12:07:46;;;;;;;4.40;1.50;;;;;;;;;;5038699;28;20432;-77
2022/08/03 12:10:13;;;;;;;2.73;1.40;;;;;;;;;;5039496;28;21055;-77
2022/08/03 12:12:40;;;;;;;5.03;1.40;;;;;;;;;;5044937;28;20819;-77
2022/08/03 12:15:06;;;;;;;5.90;1.67;;;;;;;;;;5043845;28;20425;-77
2022/08/03 12:17:36;;;;;;;3.70;1.53;;;;;;;;;;5043596;28;20428;-77
2022/08/03 12:20:03;;;;;;;2.60;1.43;;;;;;;;;;5044971;28;20423;-79
2022/08/03 12:22:33;;;;;;;1.77;1.50;;;;;;;;;;5046889;28;20429;-77
2022/08/03 12:24:58;;;;;;;4.50;1.53;;;;;;;;;;5040682;28;20449;-76
2022/08/03 12:27:28;;;;;;;6.57;1.90;;;;;;;;;;5042435;28;20944;-75
2022/08/03 12:29:55;;;;;;;1.83;1.40;;;;;;;;;;5042650;28;20448;-76
2022/08/03 12:32:21;;;;;;;2.83;1.30;;;;;;;;;;5037882;28;20435;-76
2022/08/03 12:34:47;;;;;;;2.47;1.30;;;;;;;;;;5044502;28;20447;-76
2022/08/03 12:37:13;;;;;;;2.97;1.30;;;;;;;;;;5045205;28;20428;-76
2022/08/03 12:39:40;;;;;;;4.17;1.10;;;;;;;;;;5048240;28;20428;-76
2022/08/03 12:42:06;;;;;;;5.77;1.60;;;;;;;;;;5042174;28;20953;-76
2022/08/03 12:44:33;;;;;;;3.47;1.60;;;;;;;;;;5043181;28;20836;-77
2022/08/03 12:47:00;;;;;;;3.37;1.80;;;;;;;;;;5046398;28;20420;-76
2022/08/03 12:49:26;;;;;;;4.70;1.50;;;;;;;;;;5048525;28;20467;-77
2022/08/03 12:51:52;;;;;;;2.40;1.57;;;;;;;;;;5043715;28;20856;-78
2022/08/03 12:54:19;;;;;;;2.43;1.50;;;;;;;;;;5039991;28;20519;-77
2022/08/03 12:56:58;;;;;;;3.67;1.57;;;;;;;;;;5041402;28;20243;-76
2022/08/03 12:59:25;;;;;;;2.20;1.87;;;;;;;;;;5041417;28;20424;-77
2022/08/03 13:01:51;;;;;;;1.70;1.50;;;;;;;;;;5038891;28;20424;-77
2022/08/03 13:04:35;;;;;;;3.00;1.50;;;;;;;;;;5043327;28;20448;-77
2022/08/03 13:07:02;;;;;;;3.30;1.43;;;;;;;;;;5040903;28;20780;-76
2022/08/03 13:09:30;;;;;;;3.10;1.90;;;;;;;;;;5041627;28;20487;-77
2022/08/03 13:12:06;;;;;;;1.43;1.20;;;;;;;;;;5043992;28;20915;-77
2022/08/03 13:14:33;;;;;;;3.93;1.60;;;;;;;;;;5042445;28;20794;-77
2022/08/03 13:16:59;;;;;;;1.77;1.40;;;;;;;;;;5043309;28;20420;-76
2022/08/03 13:19:25;;;;;;;9.73;1.50;;;;;;;;;;5042609;28;20519;-76
2022/08/03 13:21:51;;;;;;;3.53;1.50;;;;;;;;;;5043193;28;20420;-76
2022/08/03 13:24:18;;;;;;;2.33;1.53;;;;;;;;;;5037886;28;20449;-76
2022/08/03 13:26:44;;;;;;;3.13;1.43;;;;;;;;;;5041877;28;20416;-76
2022/08/03 13:29:10;;;;;;;2.13;1.20;;;;;;;;;;5047684;28;20574;-76
2022/08/03 13:31:36;;;;;;;2.97;1.30;;;;;;;;;;5052782;28;20412;-77
2022/08/03 13:34:02;;;;;;;2.93;1.50;;;;;;;;;;5035813;28;20917;-77
2022/08/03 13:36:28;;;;;;;3.60;1.57;;;;;;;;;;5050735;28;20412;-77
2022/08/03 13:38:54;;;;;;;2.93;1.67;;;;;;;;;;5053353;28;20502;-76
2022/08/03 13:41:21;;;;;;;3.60;1.53;;;;;;;;;;5052226;28;20884;-77
2022/08/03 13:43:47;;;;;;;6.40;1.63;;;;;;;;;;5061876;28;20436;-77
2022/08/03 13:46:13;;;;;;;5.37;1.30;;;;;;;;;;5053400;28;20415;-77
2022/08/03 13:48:39;;;;;;;6.57;1.50;;;;;;;;;;5053350;28;20462;-77
2022/08/03 13:51:05;;;;;;;2.97;1.50;;;;;;;;;;5051602;28;20476;-77
2022/08/03 13:53:31;;;;;;;1.87;1.30;;;;;;;;;;5052211;28;20550;-77
2022/08/03 13:55:57;;;;;;;4.60;1.50;;;;;;;;;;5053047;28;20412;-77
2022/08/03 13:58:23;;;;;;;2.33;1.50;;;;;;;;;;5052779;28;20795;-77
2022/08/03 14:00:49;;;;;;;2.30;1.73;;;;;;;;;;5053377;28;20503;-77
2022/08/03 14:03:15;;;;;;;1.57;1.30;;;;;;;;;;5052418;28;20431;-77
2022/08/03 14:05:44;;;;;;;4.27;1.90;;;;;;;;;;5053020;28;20412;-77
2022/08/03 14:08:10;;;;;;;2.97;1.40;;;;;;;;;;5053289;28;20416;-77
2022/08/03 14:10:37;;;;;;;6.20;1.70;;;;;;;;;;5053069;28;20952;-77
2022/08/03 14:13:04;;;;;;;2.70;1.43;;;;;;;;;;5051437;28;20442;-77
2022/08/03 14:15:30;;;;;;;4.03;1.60;;;;;;;;;;5052944;28;20931;-77
2022/08/03 14:17:56;;;;;;;5.13;1.57;;;;;;;;;;5053021;28;20416;-77
2022/08/03 14:20:22;;;;;;;4.90;1.43;;;;;;;;;;5053262;28;20438;-77
2022/08/03 14:22:48;;;;;;;3.03;1.60;;;;;;;;;;5052554;28;20424;-77
2022/08/03 14:25:14;;;;;;;3.07;1.60;;;;;;;;;;5051829;28;20416;-78
2022/08/03 14:27:40;;;;;;;5.10;1.40;;;;;;;;;;5053203;28;20447;-78
2022/08/03 14:30:07;;;;;;;2.93;1.50;;;;;;;;;;5052858;28;20828;-77
2022/08/03 14:32:33;;;;;;;2.13;1.30;;;;;;;;;;5052672;28;20412;-77
2022/08/03 14:34:59;;;;;;;3.30;1.17;;;;;;;;;;5040552;28;20541;-77
2022/08/03 14:37:25;;;;;;;2.20;1.43;;;;;;;;;;5032847;28;20936;-78
2022/08/03 14:39:51;;;;;;;3.57;1.30;;;;;;;;;;5032875;28;20413;-77
2022/08/03 14:42:19;;;;;;;1.20;1.10;;;;;;;;;;5032652;28;20901;-78
2022/08/03 14:44:45;;;;;;;2.80;1.40;;;;;;;;;;5032837;28;20444;-77
2022/08/03 14:47:11;;;;;;;4.13;1.30;;;;;;;;;;5032779;28;20417;-77
2022/08/03 14:49:37;;;;;;;3.33;1.47;;;;;;;;;;5032483;28;20923;-78
2022/08/03 14:52:03;;;;;;;5.20;1.33;;;;;;;;;;5032762;28;20401;-77
2022/08/03 14:54:30;;;;;;;5.00;1.60;;;;;;;;;;5031244;28;20433;-77
2022/08/03 14:56:56;;;;;;;2.50;1.37;;;;;;;;;;5037948;28;20461;-78
2022/08/03 14:59:22;;;;;;;3.63;1.97;;;;;;;;;;5051276;28;20519;-77
2022/08/03 15:01:48;;;;;;;6.00;1.80;;;;;;;;;;5052484;28;20416;-77
2022/08/03 15:04:14;;;;;;;4.53;1.90;;;;;;;;;;5054305;28;20947;-77